createdAt,value
2022-10-24T00:03:07.405Z,20.4
2022-10-24T00:13:07.312Z,20.1
2022-10-24T00:23:07.247Z,19.6
2022-10-24T00:33:07.238Z,19.2
2022-10-24T00:43:07.245Z,18.8
2022-10-24T00:53:07.195Z,18.6
2022-10-24T01:03:07.167Z,18.4
2022-10-24T01:13:07.158Z,18.3
2022-10-24T01:23:07.171Z,18.1
2022-10-24T01:33:07.125Z,18
2022-10-24T01:43:07.095Z,17.9
2022-10-24T01:53:07.114Z,17.8
2022-10-24T02:03:07.061Z,17.7
2022-10-24T02:13:07.045Z,17.7
2022-10-24T02:23:07.046Z,17.7
2022-10-24T02:33:06.990Z,17.6
2022-10-24T02:43:06.988Z,17.8
2022-10-24T02:53:07.000Z,17.8
2022-10-24T03:03:06.929Z,17.7
2022-10-24T03:13:06.953Z,17.6
2022-10-24T03:23:06.947Z,17.6
2022-10-24T03:33:06.885Z,17.4
2022-10-24T03:43:06.867Z,17.4
2022-10-24T04:03:06.890Z,17.1
2022-10-24T04:13:06.794Z,17
2022-10-24T04:23:06.820Z,17
2022-10-24T04:33:06.764Z,17.1
2022-10-24T04:43:06.745Z,17.2
2022-10-24T04:53:06.749Z,17.2
2022-10-24T05:03:06.693Z,17.2
2022-10-24T05:13:06.666Z,17.2
2022-10-24T05:23:06.702Z,17.2
2022-10-24T05:33:06.630Z,17.3
2022-10-24T05:43:06.662Z,17.2
2022-10-24T05:53:06.632Z,16.9
2022-10-24T06:13:06.620Z,16.1
2022-10-24T06:23:06.531Z,15.9
2022-10-24T06:33:06.538Z,15.7
2022-10-24T06:43:06.536Z,15.7
2022-10-24T06:53:06.526Z,15.7
2022-10-24T07:03:06.494Z,15.6
2022-10-24T07:13:06.493Z,15.5
2022-10-24T07:23:06.470Z,15.5
2022-10-24T07:33:06.420Z,15.6
2022-10-24T07:43:06.428Z,15.7
2022-10-24T07:53:06.439Z,15.5
2022-10-24T08:03:06.351Z,15.7
2022-10-24T08:23:06.363Z,16.2
2022-10-24T08:33:06.306Z,16.3
2022-10-24T08:43:06.310Z,16.3
2022-10-24T08:53:06.283Z,16.3
2022-10-24T09:03:06.243Z,16.3
2022-10-24T09:13:06.282Z,16.4
2022-10-24T09:23:06.304Z,16.4
2022-10-24T09:33:06.182Z,16.6
2022-10-24T09:43:06.196Z,16.7
2022-10-24T09:53:06.174Z,17
2022-10-24T10:03:06.118Z,17.6
2022-10-24T10:13:06.151Z,18
2022-10-24T10:23:06.107Z,18
2022-10-24T10:33:06.058Z,18.3
2022-10-24T10:43:06.100Z,18.9
2022-10-24T10:53:06.016Z,19.2
2022-10-24T11:03:06.024Z,19.4
2022-10-24T11:13:06.023Z,19.5
2022-10-24T11:23:05.989Z,19.7
2022-10-24T11:33:05.993Z,19.7
2022-10-24T11:43:05.969Z,20
2022-10-24T11:53:05.929Z,20.4
2022-10-24T12:03:05.896Z,21.2
2022-10-24T12:13:05.919Z,22
2022-10-24T12:23:05.858Z,22.3
2022-10-24T12:33:05.847Z,22.7
2022-10-24T12:43:05.854Z,22.1
2022-10-24T12:53:05.786Z,21.6
2022-10-24T13:03:05.765Z,21.5
2022-10-24T13:13:05.915Z,21.2
2022-10-24T13:23:05.726Z,21
2022-10-24T13:33:05.717Z,20.6
2022-10-24T13:43:07.734Z,20.8
2022-10-24T13:53:05.670Z,20.9
2022-10-24T14:03:05.757Z,21
2022-10-24T14:13:05.690Z,20.7
2022-10-24T14:23:05.635Z,20.3
2022-10-24T14:33:05.596Z,20
2022-10-24T14:43:05.592Z,19.9
2022-10-24T14:53:05.598Z,19.6
2022-10-24T15:03:05.530Z,19.3
2022-10-24T15:13:05.514Z,18.5
2022-10-24T15:23:05.511Z,17.9
2022-10-24T15:33:05.481Z,17.6
2022-10-24T15:43:05.481Z,17.4
2022-10-24T15:53:05.466Z,17.3
2022-10-24T16:03:05.438Z,17.2
2022-10-24T16:13:05.397Z,17.1
2022-10-24T16:23:05.378Z,16.9
2022-10-24T16:33:05.373Z,16.8
2022-10-24T16:43:05.363Z,16.5
2022-10-24T16:53:05.364Z,16.4
2022-10-24T17:03:05.289Z,16.2
2022-10-24T17:13:05.293Z,16
2022-10-24T17:23:06.584Z,15.9
2022-10-24T17:33:05.235Z,15.9
2022-10-24T17:43:05.241Z,15.8
2022-10-24T17:53:05.268Z,15.6
2022-10-24T18:03:05.200Z,15.5
2022-10-24T18:13:05.183Z,15.4
2022-10-24T18:23:05.175Z,15.4
2022-10-24T18:33:05.152Z,15.3
2022-10-24T18:43:05.117Z,15.1
2022-10-24T18:53:05.162Z,15.1
2022-10-24T19:03:05.093Z,15
2022-10-24T19:13:05.062Z,15
2022-10-24T19:23:05.054Z,15
2022-10-24T19:33:05.062Z,15
2022-10-24T19:43:05.044Z,14.9
2022-10-24T19:53:05.071Z,14.8
2022-10-24T20:03:04.977Z,14.8
2022-10-24T20:13:05.000Z,14.7
2022-10-24T20:23:04.925Z,14.7
2022-10-24T20:33:04.926Z,14.7
2022-10-24T20:43:04.954Z,14.6
2022-10-24T20:53:04.918Z,14.6
2022-10-24T21:03:04.899Z,14.6
2022-10-24T21:13:04.905Z,14.5
2022-10-24T21:23:04.826Z,14.4
2022-10-24T21:33:04.836Z,14.4
2022-10-24T21:43:04.842Z,14.4
2022-10-24T21:53:04.809Z,14.4
2022-10-24T22:03:04.786Z,14.5
2022-10-24T22:13:04.776Z,14.4
2022-10-24T22:23:04.782Z,14.4
2022-10-24T22:33:04.752Z,14.2
2022-10-24T22:43:04.727Z,14
2022-10-24T22:53:04.729Z,14
2022-10-24T23:03:04.668Z,13.8
2022-10-24T23:13:04.697Z,13.7
2022-10-24T23:23:16.143Z,13.5
2022-10-24T23:33:04.632Z,13.4
2022-10-24T23:43:04.628Z,13.3
2022-10-24T23:53:04.729Z,13.1
